Terminal Aerodrome Forecast
Issued by NWS

Home | Current Version | Previous Version | Text Only | Print | Product List | Glossary Off
Versions: 1 2 3 4 5 6 7 8 9 10 11 12 13 14 15 16 17 18 19 20 21 22 23 24 25

000
FTUS43 KLOT 221507 AAA
TAFGYY
TAF AMD
KGYY 221507Z 2215/2312 15008KT P6SM BKN200 OVC250
     FM221700 21011KT P6SM BKN250
     FM230100 VRB03KT P6SM BKN250
     FM230800 02007KT P6SM SCT030 BKN100=

USA.gov is the U.S. government's official web portal to all federal, state and local government web resources and services.